Welcome to the updated website with new and more accurate equipment. Established 2007


Active alerts


No alerts

Mount Mesnard more information Mount Mesnard


Lower Harbor more information Lower Harbor


Visit our other weather sites:

Template documentation
and downloads

And another site


Nearby METAR Reports

   
KSAW - Sawyer, Michigan
Updated: 24-03-2017 11:47
Mist, Overcast  
Mist, Overcast  
   Wind: Calm
Wind: Calm
Temperature: 32°F
Dew Point: 32°F
Humidity: 100%
Barometer: 29.97 inHg
Clouds: Overcast
Visibility: 3 mi
Cloud details: Overcast 152 m
KSAW 241547Z 00000KT 3SM BR OVC005 00/00 A2997
KESC - Escanaba, Michigan
Updated: 24-03-2017 11:08
Light Rain, Mist, Overcast  
Light Rain, Mist, Overcast  
   Wind: WNW 6.9 mph
Wind: WNW 6.9 mph
Temperature: 33.8°F
Wind Chill: 28.4°F
Dew Point: 33.8°F
Humidity: 100%
Barometer: 29.97 inHg
Clouds: Overcast
Visibility: 3 mi
Cloud details: Few Clouds 1006 m,
Overcast 1676 m
KESC 241508Z AUTO 30006KT 3SM -RA BR FEW033 OVC055 01/01 A2997 RMK AO2 UPB00E02RAB02SNE00 PRESRR P0001 FZRANO
KIMT - Iron Mountain, MI
Updated: 24-03-2017 11:35
Light Rain, Mist, Overcast  
Light Rain, Mist, Overcast  
   Wind: NNW 3.5 mph
Wind: NNW 3.5 mph
Temperature: 33.8°F
Wind Chill: 30.2°F
Dew Point: 30.2°F
Humidity: 87%
Barometer: 29.94 inHg
Clouds: Overcast
Visibility: 2 mi
Cloud details: Mostly Cloudy 762 m,
Overcast 945 m
KIMT 241535Z AUTO 34003KT 2 1/2SM -RA BR BKN025 OVC031 01/M01 A2994 RMK AO2 P0000 T00111006
KGRB - Green Bay, WI
Updated: 24-03-2017 10:53
Mist, Overcast  
Mist, Overcast  
   Wind: NNE 5.8 mph
Wind: NNE 5.8 mph
Temperature: 41°F
Wind Chill: 37.4°F
Dew Point: 37.4°F
Humidity: 87%
Barometer: 29.92 inHg
Clouds: Overcast
Visibility: 5 mi
Cloud details: Overcast 732 m
KGRB 241453Z 02005KT 5SM BR OVC024 05/03 A2992 RMK AO2 SLP139 T00500033 51010
KDET - Detroit, MI
Updated: 24-03-2017 10:53
Partly Cloudy  
Partly Cloudy  
   Wind: WSW 15 mph<br />Gust to 15 mph
Wind: WSW 15 mph
Gust to 15 mph
Temperature: 57.2°F
Dew Point: 46.4°F
Humidity: 67%
Barometer: 30 inHg
Clouds: Partly Cloudy
Visibility: 10 mi
Cloud details: Partly Cloudy 2438 m
KDET 241453Z 25013G23KT 10SM SCT080 14/08 A3000 RMK AO2 PK WND 24027/1423 SLP163 T01390078 55005
 

Script developed by  Saratoga-weather.org Adapted for the template by  Weerstation Leuven

You find our weather info also at:

Weather Underground

Midwestern Weather Network

WeatherlinkIP

Citizen Weather Observer Program (CWOP)

Equipment we use:

Weather-station
Davis VP2

Weather-program
Davis Weatherlink.Com

Davis VP2

Davis Weatherlink.Com